Warren, Michigan
Current Conditions -  °F | °C
As of 6:53 PM on Saturday 22 Nov 2014 (Local Time) from KDET Reporting Station
Light Rain Light Rain  
Wind Chill: 44°   Ceiling: 2700
Heat Index: 48°   Visibility: 6mi
Dew Point: 42°   Wind: 9mph
Humidity: 80%   Direction: 220°SW
Pressure: 29.96"   Gusts: NA
Location:  42.51°N, 83.03°W
Report Text: KDET 222353Z 22008KT 6SM -RA OVC027 09/06 A2996 RMK AO2 RAB13E23B47 SLP149 P0000 60000 T00890056 10094 20044 57001
Loading
Personal Weather Stations






























Interactive Weather Map New forecast layout! Learn more

10-Day Weather Forecast

Advertisements
Track Severe Weather on mobile